Danny Terral — WDI5538 — position and weather

sailwx.info

Track history (hours):
 
Tides and Currents Weather Stations Pressure Air Temp Water Temp Dewpoint Dewpoint Depression Visibility Wind Speed Wind Dir Waves Ship Positions

Danny Terral

Owner: Terral RiverService, Inc., Lake Providence, LA. More information available from US FCC via Universal Licensing System and Coast Guard Vessel Documentation Center.

Last reported at 2017-Nov-18 21:31 UTC. Time now 2017-Nov-18 21:43 UTC.
Position N 30°13' W 093°15'.

Length 25 m; draft 2 m.

Type: Towing. MMSI: 367005180.

Date/timePositionNaut miles runAvg speedWind from/ knotsBaromVisibWave heightAir tempDewpointWater temp
2017-Nov-18 21:31N 30°13' W 093°15'2 4.6
2017-Nov-18 21:00N 30°12' W 093°17'1 2.5
2017-Nov-18 20:30N 30°13' W 093°19'0 0.8
2017-Nov-18 20:00N 30°13' W 093°19'0 0.6
2017-Nov-18 19:30N 30°12' W 093°19'0 0.0
2017-Nov-18 19:01N 30°12' W 093°19'0 0.3
2017-Nov-18 18:30N 30°12' W 093°19'0 0.0
2017-Nov-18 18:00N 30°12' W 093°19'0 0.0
2017-Nov-18 17:30N 30°12' W 093°19'0 0.2
2017-Nov-18 17:00N 30°13' W 093°19'0 0.6
2017-Nov-18 16:30N 30°12' W 093°19'0 0.3
2017-Nov-18 16:00N 30°12' W 093°19'0 0.2
2017-Nov-18 15:30N 30°12' W 093°19'0 0.0
2017-Nov-18 15:00N 30°12' W 093°19'0 0.0
2017-Nov-18 14:30N 30°12' W 093°19'0 0.0
2017-Nov-18 14:00N 30°12' W 093°19'0 0.3
2017-Nov-18 13:31N 30°12' W 093°19'0 0.1
2017-Nov-18 13:00N 30°12' W 093°19'0 0.0
2017-Nov-18 12:30N 30°12' W 093°19'0 0.5
2017-Nov-18 12:00N 30°12' W 093°19'0 0.0
2017-Nov-18 11:30N 30°12' W 093°19'0 0.0
2017-Nov-18 11:00N 30°12' W 093°19'0 0.0
2017-Nov-18 10:30N 30°12' W 093°19'0 0.0
2017-Nov-18 10:00N 30°12' W 093°19'0 0.0
2017-Nov-18 09:30N 30°12' W 093°19'0 0.0
2017-Nov-18 09:00N 30°12' W 093°19'0 0.0
2017-Nov-18 08:30N 30°12' W 093°19'0 0.0
2017-Nov-18 08:00N 30°12' W 093°19'0 0.0
2017-Nov-18 07:30N 30°12' W 093°19'0 0.0
2017-Nov-18 07:00N 30°12' W 093°19'0 0.0
2017-Nov-18 06:30N 30°12' W 093°19'0 0.0
2017-Nov-18 06:00N 30°12' W 093°19'0 0.0
2017-Nov-18 05:30N 30°12' W 093°19'0 0.3
2017-Nov-18 05:01N 30°12' W 093°19'0 0.9
2017-Nov-18 04:30N 30°13' W 093°19'1 1.4
2017-Nov-18 04:01N 30°13' W 093°18'1 3.0
2017-Nov-18 03:30N 30°12' W 093°16'1 2.8
2017-Nov-18 02:59N 30°13' W 093°15'2 3.7
2017-Nov-18 02:30N 30°12' W 093°17'2 3.9
2017-Nov-18 02:01N 30°13' W 093°19'0 0.5
2017-Nov-18 01:31N 30°13' W 093°19'0 1.0
2017-Nov-18 01:00N 30°12' W 093°19'1 2.1
2017-Nov-18 00:30N 30°12' W 093°17'2 3.4
2017-Nov-18 00:00N 30°13' W 093°16'1 1.3
2017-Nov-17 23:30N 30°13' W 093°15'2 4.7
2017-Nov-17 23:00N 30°12' W 093°17'2 3.2
2017-Nov-17 22:30N 30°12' W 093°19'1 1.1
2017-Nov-17 22:00N 30°13' W 093°19'2 3.0
2017-Nov-17 21:30N 30°12' W 093°17'2 4.5
2017-Nov-17 21:00N 30°13' W 093°15'2 4.7
2017-Nov-17 20:30N 30°12' W 093°18'1 2.9
2017-Nov-17 20:00N 30°12' W 093°19'0 0.0
2017-Nov-17 19:30N 30°12' W 093°19'0 0.5
2017-Nov-17 19:00N 30°13' W 093°19'1 1.2
2017-Nov-17 18:30N 30°13' W 093°18'1 2.8
2017-Nov-17 18:00N 30°12' W 093°17'2 3.4
2017-Nov-17 17:30N 30°13' W 093°15'0 0.1
2017-Nov-17 17:00N 30°13' W 093°15'0 0.7
2017-Nov-17 16:30N 30°13' W 093°15'2 3.0
2017-Nov-17 16:00N 30°12' W 093°17'2 3.4
2017-Nov-17 15:30N 30°11' W 093°18'2 4.1
2017-Nov-17 15:00N 30°09' W 093°20'2 4.4
2017-Nov-17 14:30N 30°07' W 093°20'2 3.1
2017-Nov-17 14:00N 30°06' W 093°19'1 2.7
2017-Nov-17 13:30N 30°05' W 093°18'0 0.9
2017-Nov-17 13:00N 30°05' W 093°17'1 2.6
2017-Nov-17 12:30N 30°04' W 093°16'0 0.4
2017-Nov-17 12:00N 30°04' W 093°16'1 2.7
2017-Nov-17 11:30N 30°03' W 093°16'1 3.0
2017-Nov-17 11:00N 30°02' W 093°14'1 2.8
2017-Nov-17 10:30N 30°00' W 093°14'1 2.6
2017-Nov-17 10:00N 29°59' W 093°13'2 3.3
2017-Nov-17 09:30N 29°58' W 093°12'2 3.5
2017-Nov-17 09:00N 29°57' W 093°10'2 3.1
2017-Nov-17 08:30N 29°56' W 093°09'2 3.6
2017-Nov-17 08:00N 29°56' W 093°07'1 2.1
2017-Nov-17 07:30N 29°56' W 093°05'2 3.2
2017-Nov-17 06:59N 29°56' W 093°03'18 3.3
2017-Nov-17 01:31N 29°57' W 092°43'0 3.8
2017-Nov-17 01:29N 29°57' W 092°43'19 3.3
2017-Nov-16 19:39N 29°51' W 092°22'0 3.0
2017-Nov-16 19:30N 29°51' W 092°21'2 3.4
2017-Nov-16 19:00N 29°50' W 092°19'2 3.1
2017-Nov-16 18:31N 29°50' W 092°18'2 3.2
2017-Nov-16 18:00N 29°49' W 092°17'2 3.4
2017-Nov-16 17:30N 29°48' W 092°15'2 3.2
2017-Nov-16 17:00N 29°47' W 092°13'1 2.3
2017-Nov-16 16:30N 29°47' W 092°12'1 1.7
2017-Nov-16 16:00N 29°47' W 092°11'0 0.0
2017-Nov-16 15:30N 29°47' W 092°11'1 1.1
2017-Nov-16 15:00N 29°47' W 092°10'2 3.4
2017-Nov-16 14:31N 29°47' W 092°08'2 4.0
2017-Nov-16 14:00N 29°48' W 092°06'2 3.6
2017-Nov-16 13:30N 29°48' W 092°04'0 0.5
2017-Nov-16 13:00N 29°48' W 092°04'0 0.0
2017-Nov-16 12:30N 29°48' W 092°04'0 0.0
2017-Nov-16 12:00N 29°48' W 092°04'0 0.0
2017-Nov-16 11:30N 29°48' W 092°04'0 0.0
2017-Nov-16 11:00N 29°48' W 092°04'0 0.0
2017-Nov-16 10:30N 29°48' W 092°04'0 0.0
2017-Nov-16 10:00N 29°48' W 092°04'0 0.0
2017-Nov-16 09:30N 29°48' W 092°04'0 0.0
2017-Nov-16 09:00N 29°48' W 092°04'0 0.0
2017-Nov-16 08:30N 29°48' W 092°04'0 0.0
2017-Nov-16 08:00N 29°48' W 092°04'0 0.0
2017-Nov-16 07:30N 29°48' W 092°04'0 0.0
2017-Nov-16 07:00N 29°48' W 092°04'0 0.0
2017-Nov-16 06:30N 29°48' W 092°04'0 0.1
2017-Nov-16 06:00N 29°48' W 092°04'0 0.4
2017-Nov-16 05:30N 29°48' W 092°04'1 3.0
2017-Nov-16 05:00N 29°49' W 092°02'2 3.6
2017-Nov-16 04:30N 29°50' W 092°00'1 2.0
2017-Nov-16 04:01N 29°50' W 091°59'1 2.9
2017-Nov-16 03:30N 29°50' W 091°58'2 3.5
2017-Nov-16 03:00N 29°51' W 091°56'  
2017-Nov-12 19:21N 29°34' W 090°57'2 4.6
2017-Nov-12 18:57N 29°33' W 090°55'2 4.5
2017-Nov-12 18:29N 29°32' W 090°53'2 4.3
2017-Nov-12 18:00N 29°32' W 090°50'2 4.6
2017-Nov-12 17:30N 29°32' W 090°48'2 4.4
2017-Nov-12 17:01N 29°33' W 090°45'1 2.0
2017-Nov-12 16:30N 29°34' W 090°45'2 3.6
2017-Nov-12 16:00N 29°35' W 090°43'2 3.8
2017-Nov-12 15:30N 29°36' W 090°43'1 1.7
2017-Nov-12 15:00N 29°37' W 090°42'0 0.1
2017-Nov-12 14:30N 29°37' W 090°42'1 2.7
2017-Nov-12 14:01N 29°36' W 090°40'1 1.7
2017-Nov-12 13:30N 29°36' W 090°39'0 0.2
2017-Nov-12 13:00N 29°36' W 090°39'0 0.0
2017-Nov-12 12:30N 29°36' W 090°39'0 0.0
2017-Nov-12 12:00N 29°36' W 090°39'0 0.0
2017-Nov-12 11:30N 29°36' W 090°39'0 0.0
2017-Nov-12 11:00N 29°36' W 090°39'0 0.0
2017-Nov-12 10:30N 29°36' W 090°39'0 0.0
2017-Nov-12 10:01N 29°36' W 090°39'0 0.0
2017-Nov-12 09:30N 29°36' W 090°39'0 0.0
2017-Nov-12 09:00N 29°36' W 090°39'0 0.0
2017-Nov-12 08:30N 29°36' W 090°39'0 0.0
2017-Nov-12 08:00N 29°36' W 090°39'0 0.0
2017-Nov-12 07:30N 29°36' W 090°39'0 0.0
2017-Nov-12 07:00N 29°36' W 090°39'0 0.0
2017-Nov-12 06:30N 29°36' W 090°39'0 0.0
2017-Nov-12 06:00N 29°36' W 090°39'0 0.0
2017-Nov-12 05:30N 29°36' W 090°39'0 0.0
2017-Nov-12 05:00N 29°36' W 090°39'0 0.0
2017-Nov-12 04:30N 29°36' W 090°39'0 0.0
2017-Nov-12 04:00N 29°36' W 090°39'0 0.0
2017-Nov-12 03:30N 29°36' W 090°39'0 0.0
2017-Nov-12 03:00N 29°36' W 090°39'0 0.0
2017-Nov-12 02:30N 29°36' W 090°39'0 0.1
2017-Nov-12 02:00N 29°36' W 090°39'0 0.0
2017-Nov-12 01:30N 29°36' W 090°39'0 0.1
2017-Nov-12 01:00N 29°36' W 090°39'0 0.8
2017-Nov-12 00:31N 29°36' W 090°40'0 0.3
2017-Nov-12 00:00N 29°36' W 090°40'0 0.4
2017-Nov-11 23:30N 29°36' W 090°40'0 0.1
2017-Nov-11 23:00N 29°36' W 090°40'0 0.0
2017-Nov-11 22:30N 29°36' W 090°40'0 0.0
2017-Nov-11 22:00N 29°36' W 090°40'0 0.0
2017-Nov-11 21:30N 29°36' W 090°40'0 0.0
2017-Nov-11 21:01N 29°36' W 090°40'0 0.0
2017-Nov-11 20:30N 29°36' W 090°40'0 0.0
2017-Nov-11 20:00N 29°36' W 090°40'0 0.0
2017-Nov-11 19:30N 29°36' W 090°40'0 0.0
2017-Nov-11 19:00N 29°36' W 090°40'0 0.0
2017-Nov-11 18:30N 29°36' W 090°40'0 0.0
2017-Nov-11 18:00N 29°36' W 090°40'0 0.0
2017-Nov-11 17:30N 29°36' W 090°40'0 0.0
2017-Nov-11 17:00N 29°36' W 090°40'0 0.0
2017-Nov-11 16:30N 29°36' W 090°40'0 0.0
2017-Nov-11 16:00N 29°36' W 090°40'0 0.8
2017-Nov-11 15:30N 29°36' W 090°39'0 0.0
2017-Nov-11 15:00N 29°36' W 090°39'0 0.2
2017-Nov-11 14:31N 29°36' W 090°40'0 0.3
2017-Nov-11 14:00N 29°36' W 090°39'0 0.7
2017-Nov-11 13:30N 29°36' W 090°40'0 0.4
2017-Nov-11 13:00N 29°36' W 090°40'0 0.0
2017-Nov-11 12:30N 29°36' W 090°40'0 0.0
2017-Nov-11 12:00N 29°36' W 090°40'0 0.0
2017-Nov-11 11:30N 29°36' W 090°40'0 0.0
2017-Nov-11 11:00N 29°36' W 090°40'0 0.0
2017-Nov-11 10:30N 29°36' W 090°40'0 0.0
2017-Nov-11 10:00N 29°36' W 090°40'0 0.0
2017-Nov-11 09:30N 29°36' W 090°40'0 0.0
2017-Nov-11 09:00N 29°36' W 090°40'0 0.0
2017-Nov-11 08:30N 29°36' W 090°40'0 0.0
2017-Nov-11 08:00N 29°36' W 090°40'0 0.0
2017-Nov-11 07:30N 29°36' W 090°40'0 0.0
2017-Nov-11 07:00N 29°36' W 090°40'0 0.0
2017-Nov-11 06:30N 29°36' W 090°40'0 0.0
2017-Nov-11 06:00N 29°36' W 090°40'0 0.0
2017-Nov-11 05:30N 29°36' W 090°40'0 0.0
2017-Nov-11 05:00N 29°36' W 090°40'0 0.0
2017-Nov-11 04:30N 29°36' W 090°40'0 0.0
2017-Nov-11 04:01N 29°36' W 090°40'0 0.0
2017-Nov-11 03:30N 29°36' W 090°40'0 0.0
2017-Nov-11 03:00N 29°36' W 090°40'0 0.0
2017-Nov-11 02:30N 29°36' W 090°40'0 0.0
2017-Nov-11 02:00N 29°36' W 090°40'0 0.0
2017-Nov-11 01:30N 29°36' W 090°40'0 0.0
2017-Nov-11 01:00N 29°36' W 090°40'0 0.0
2017-Nov-11 00:30N 29°36' W 090°40'0 0.0
2017-Nov-11 00:00N 29°36' W 090°40'0 0.0
2017-Nov-10 23:31N 29°36' W 090°40'0 0.0
2017-Nov-10 23:00N 29°36' W 090°40'0 0.2
2017-Nov-10 22:30N 29°36' W 090°40'0 0.1
2017-Nov-10 22:00N 29°36' W 090°40'0 0.0
2017-Nov-10 21:30N 29°36' W 090°40'0 0.0
2017-Nov-10 21:00N 29°36' W 090°40'0 0.0
2017-Nov-10 20:31N 29°36' W 090°40'0 0.0
2017-Nov-10 20:00N 29°36' W 090°40'0 0.0
2017-Nov-10 19:30N 29°36' W 090°40'0 0.0
2017-Nov-10 19:01N 29°36' W 090°40'0 0.8
2017-Nov-10 18:30N 29°36' W 090°39'0 0.7
2017-Nov-10 18:01N 29°36' W 090°40'0 0.7
2017-Nov-10 17:27N 29°36' W 090°39'0 0.0
2017-Nov-10 17:00N 29°36' W 090°39'0 0.0
2017-Nov-10 16:14N 29°36' W 090°39'0 0.0
2017-Nov-10 16:00N 29°36' W 090°39'0 0.0
2017-Nov-10 15:31N 29°36' W 090°39'0 0.0
2017-Nov-10 15:00N 29°36' W 090°39'0 0.0
2017-Nov-10 14:30N 29°36' W 090°39'0 0.4
2017-Nov-10 14:00N 29°36' W 090°40'0 0.2
2017-Nov-10 13:30N 29°36' W 090°40'0 0.1
2017-Nov-10 13:01N 29°36' W 090°40'0 0.4
2017-Nov-10 12:30N 29°36' W 090°39'0 0.0
2017-Nov-10 12:00N 29°36' W 090°39'0 0.0
2017-Nov-10 10:31N 29°36' W 090°39'0 0.0
2017-Nov-10 10:30N 29°36' W 090°39'0 0.0
2017-Nov-10 10:01N 29°36' W 090°39'0 0.0
2017-Nov-10 09:30N 29°36' W 090°39'0 0.0
2017-Nov-10 09:00N 29°36' W 090°39'0 0.0
2017-Nov-10 08:31N 29°36' W 090°39'0 0.0
2017-Nov-10 08:00N 29°36' W 090°39'0 0.0
2017-Nov-10 07:30N 29°36' W 090°39'0 0.0
2017-Nov-10 07:01N 29°36' W 090°39'0 0.0
2017-Nov-10 06:30N 29°36' W 090°39'0 0.0
2017-Nov-10 06:00N 29°36' W 090°39'0 0.0
2017-Nov-10 05:30N 29°36' W 090°39'0 0.0
2017-Nov-10 05:01N 29°36' W 090°39'0 0.0
2017-Nov-10 04:30N 29°36' W 090°39'0 0.0
2017-Nov-10 04:01N 29°36' W 090°39'0 0.0
2017-Nov-10 03:30N 29°36' W 090°39'0 0.0
2017-Nov-10 03:00N 29°36' W 090°39'0 0.0
2017-Nov-10 02:30N 29°36' W 090°39'0 0.0
2017-Nov-10 02:01N 29°36' W 090°39'0 0.0
2017-Nov-10 01:30N 29°36' W 090°39'0 0.0
2017-Nov-10 01:01N 29°36' W 090°39'0 0.0
2017-Nov-10 00:30N 29°36' W 090°39'0 0.0
2017-Nov-10 00:00N 29°36' W 090°39'0 0.4
2017-Nov-09 23:30N 29°36' W 090°40'0 0.4
2017-Nov-09 23:00N 29°36' W 090°39'0 0.0
2017-Nov-09 22:30N 29°36' W 090°39'0 0.0
2017-Nov-09 22:00N 29°36' W 090°39'0 0.0
2017-Nov-09 21:30N 29°36' W 090°39'0 0.0
2017-Nov-09 21:00N 29°36' W 090°39'0 0.0
2017-Nov-09 20:30N 29°36' W 090°39'0 0.0
2017-Nov-09 20:00N 29°36' W 090°39'0 0.0
2017-Nov-09 19:30N 29°36' W 090°39'0 0.0
2017-Nov-09 19:00N 29°36' W 090°39'0 0.0
2017-Nov-09 18:31N 29°36' W 090°39'0 0.0
2017-Nov-09 18:00N 29°36' W 090°39'0 0.0
2017-Nov-09 17:30N 29°36' W 090°39'0 0.3
2017-Nov-09 17:00N 29°36' W 090°40'0 0.3
2017-Nov-09 16:30N 29°36' W 090°40'0 0.0
2017-Nov-09 16:00N 29°36' W 090°40'0 0.2
2017-Nov-09 15:31N 29°36' W 090°40'0 0.0
2017-Nov-09 15:00N 29°36' W 090°40'0 0.4
2017-Nov-09 14:30N 29°36' W 090°40'0 0.5
2017-Nov-09 13:58N 29°36' W 090°40'0 0.8
2017-Nov-09 13:30N 29°36' W 090°39'0 0.0
2017-Nov-09 13:00N 29°36' W 090°39'0 0.0
2017-Nov-09 12:30N 29°36' W 090°39'0 0.0
2017-Nov-09 12:00N 29°36' W 090°39'0 0.0
2017-Nov-09 11:30N 29°36' W 090°39'0 0.0
2017-Nov-09 11:00N 29°36' W 090°39'0 0.0
2017-Nov-09 10:31N 29°36' W 090°39'0 0.0
2017-Nov-09 10:00N 29°36' W 090°39'0 0.0
2017-Nov-09 09:30N 29°36' W 090°39'0 0.0
2017-Nov-09 09:00N 29°36' W 090°39'0 0.0
2017-Nov-09 08:30N 29°36' W 090°39'0 0.0
2017-Nov-09 08:00N 29°36' W 090°39'0 0.0
2017-Nov-09 07:30N 29°36' W 090°39'0 0.0
2017-Nov-09 07:00N 29°36' W 090°39'0 0.0
2017-Nov-09 06:30N 29°36' W 090°39'0 0.0
2017-Nov-09 06:01N 29°36' W 090°39'0 0.0
2017-Nov-09 05:31N 29°36' W 090°39'0 0.0
2017-Nov-09 05:00N 29°36' W 090°39'0 0.0
2017-Nov-09 04:30N 29°36' W 090°39'0 0.0
2017-Nov-09 04:00N 29°36' W 090°39'0 0.0
2017-Nov-09 03:30N 29°36' W 090°39'0 0.0
2017-Nov-09 03:00N 29°36' W 090°39'0 0.0
2017-Nov-09 02:30N 29°36' W 090°39'0 0.0
2017-Nov-09 02:00N 29°36' W 090°39'0 0.0
2017-Nov-09 01:30N 29°36' W 090°39'0 0.0
2017-Nov-09 01:00N 29°36' W 090°39'0 0.0
2017-Nov-09 00:30N 29°36' W 090°39'0 0.0
2017-Nov-09 00:00N 29°36' W 090°39'0 0.0
2017-Nov-08 23:30N 29°36' W 090°39'0 0.0
2017-Nov-08 23:00N 29°36' W 090°39'0 0.7
2017-Nov-08 22:30N 29°36' W 090°40'0 0.2
2017-Nov-08 22:00N 29°36' W 090°40'  
Track history (hours):
 
Tides and Currents Weather Stations Pressure Air Temp Water Temp Dewpoint Dewpoint Depression Visibility Wind Speed Wind Dir Waves Ship Positions

Danny Terral

Owner: Terral RiverService, Inc., Lake Providence, LA. More information available from US FCC via Universal Licensing System and Coast Guard Vessel Documentation Center.

Last reported at 2017-Nov-18 21:31 UTC. Time now 2017-Nov-18 21:43 UTC.
Position N 30°13' W 093°15'.

Length 25 m; draft 2 m.

Type: Towing. MMSI: 367005180.

Date/timePositionNaut miles runAvg speedWind from/ knotsBaromVisibWave heightAir tempDewpointWater temp
2017-Nov-18 21:31N 30°13' W 093°15'2 4.6
2017-Nov-18 21:00N 30°12' W 093°17'1 2.5
2017-Nov-18 20:30N 30°13' W 093°19'0 0.8
2017-Nov-18 20:00N 30°13' W 093°19'0 0.6
2017-Nov-18 19:30N 30°12' W 093°19'0 0.0
2017-Nov-18 19:01N 30°12' W 093°19'0 0.3
2017-Nov-18 18:30N 30°12' W 093°19'0 0.0
2017-Nov-18 18:00N 30°12' W 093°19'0 0.0
2017-Nov-18 17:30N 30°12' W 093°19'0 0.2
2017-Nov-18 17:00N 30°13' W 093°19'0 0.6
2017-Nov-18 16:30N 30°12' W 093°19'0 0.3
2017-Nov-18 16:00N 30°12' W 093°19'0 0.2
2017-Nov-18 15:30N 30°12' W 093°19'0 0.0
2017-Nov-18 15:00N 30°12' W 093°19'0 0.0
2017-Nov-18 14:30N 30°12' W 093°19'0 0.0
2017-Nov-18 14:00N 30°12' W 093°19'0 0.3
2017-Nov-18 13:31N 30°12' W 093°19'0 0.1
2017-Nov-18 13:00N 30°12' W 093°19'0 0.0
2017-Nov-18 12:30N 30°12' W 093°19'0 0.5
2017-Nov-18 12:00N 30°12' W 093°19'0 0.0
2017-Nov-18 11:30N 30°12' W 093°19'0 0.0
2017-Nov-18 11:00N 30°12' W 093°19'0 0.0
2017-Nov-18 10:30N 30°12' W 093°19'0 0.0
2017-Nov-18 10:00N 30°12' W 093°19'0 0.0
2017-Nov-18 09:30N 30°12' W 093°19'0 0.0
2017-Nov-18 09:00N 30°12' W 093°19'0 0.0
2017-Nov-18 08:30N 30°12' W 093°19'0 0.0
2017-Nov-18 08:00N 30°12' W 093°19'0 0.0
2017-Nov-18 07:30N 30°12' W 093°19'0 0.0
2017-Nov-18 07:00N 30°12' W 093°19'0 0.0
2017-Nov-18 06:30N 30°12' W 093°19'0 0.0
2017-Nov-18 06:00N 30°12' W 093°19'0 0.0
2017-Nov-18 05:30N 30°12' W 093°19'0 0.3
2017-Nov-18 05:01N 30°12' W 093°19'0 0.9
2017-Nov-18 04:30N 30°13' W 093°19'1 1.4
2017-Nov-18 04:01N 30°13' W 093°18'1 3.0
2017-Nov-18 03:30N 30°12' W 093°16'1 2.8
2017-Nov-18 02:59N 30°13' W 093°15'2 3.7
2017-Nov-18 02:30N 30°12' W 093°17'2 3.9
2017-Nov-18 02:01N 30°13' W 093°19'0 0.5
2017-Nov-18 01:31N 30°13' W 093°19'0 1.0
2017-Nov-18 01:00N 30°12' W 093°19'1 2.1
2017-Nov-18 00:30N 30°12' W 093°17'2 3.4
2017-Nov-18 00:00N 30°13' W 093°16'1 1.3
2017-Nov-17 23:30N 30°13' W 093°15'2 4.7
2017-Nov-17 23:00N 30°12' W 093°17'2 3.2
2017-Nov-17 22:30N 30°12' W 093°19'1 1.1
2017-Nov-17 22:00N 30°13' W 093°19'2 3.0
2017-Nov-17 21:30N 30°12' W 093°17'2 4.5
2017-Nov-17 21:00N 30°13' W 093°15'2 4.7
2017-Nov-17 20:30N 30°12' W 093°18'1 2.9
2017-Nov-17 20:00N 30°12' W 093°19'0 0.0
2017-Nov-17 19:30N 30°12' W 093°19'0 0.5
2017-Nov-17 19:00N 30°13' W 093°19'1 1.2
2017-Nov-17 18:30N 30°13' W 093°18'1 2.8
2017-Nov-17 18:00N 30°12' W 093°17'2 3.4
2017-Nov-17 17:30N 30°13' W 093°15'0 0.1
2017-Nov-17 17:00N 30°13' W 093°15'0 0.7
2017-Nov-17 16:30N 30°13' W 093°15'2 3.0
2017-Nov-17 16:00N 30°12' W 093°17'2 3.4
2017-Nov-17 15:30N 30°11' W 093°18'2 4.1
2017-Nov-17 15:00N 30°09' W 093°20'2 4.4
2017-Nov-17 14:30N 30°07' W 093°20'2 3.1
2017-Nov-17 14:00N 30°06' W 093°19'1 2.7
2017-Nov-17 13:30N 30°05' W 093°18'0 0.9
2017-Nov-17 13:00N 30°05' W 093°17'1 2.6
2017-Nov-17 12:30N 30°04' W 093°16'0 0.4
2017-Nov-17 12:00N 30°04' W 093°16'1 2.7
2017-Nov-17 11:30N 30°03' W 093°16'1 3.0
2017-Nov-17 11:00N 30°02' W 093°14'1 2.8
2017-Nov-17 10:30N 30°00' W 093°14'1 2.6
2017-Nov-17 10:00N 29°59' W 093°13'2 3.3
2017-Nov-17 09:30N 29°58' W 093°12'2 3.5
2017-Nov-17 09:00N 29°57' W 093°10'2 3.1
2017-Nov-17 08:30N 29°56' W 093°09'2 3.6
2017-Nov-17 08:00N 29°56' W 093°07'1 2.1
2017-Nov-17 07:30N 29°56' W 093°05'2 3.2
2017-Nov-17 06:59N 29°56' W 093°03'18 3.3
2017-Nov-17 01:31N 29°57' W 092°43'0 3.8
2017-Nov-17 01:29N 29°57' W 092°43'19 3.3
2017-Nov-16 19:39N 29°51' W 092°22'0 3.0
2017-Nov-16 19:30N 29°51' W 092°21'2 3.4
2017-Nov-16 19:00N 29°50' W 092°19'2 3.1
2017-Nov-16 18:31N 29°50' W 092°18'2 3.2
2017-Nov-16 18:00N 29°49' W 092°17'2 3.4
2017-Nov-16 17:30N 29°48' W 092°15'2 3.2
2017-Nov-16 17:00N 29°47' W 092°13'1 2.3
2017-Nov-16 16:30N 29°47' W 092°12'1 1.7
2017-Nov-16 16:00N 29°47' W 092°11'0 0.0
2017-Nov-16 15:30N 29°47' W 092°11'1 1.1
2017-Nov-16 15:00N 29°47' W 092°10'2 3.4
2017-Nov-16 14:31N 29°47' W 092°08'2 4.0
2017-Nov-16 14:00N 29°48' W 092°06'2 3.6
2017-Nov-16 13:30N 29°48' W 092°04'0 0.5
2017-Nov-16 13:00N 29°48' W 092°04'0 0.0
2017-Nov-16 12:30N 29°48' W 092°04'0 0.0
2017-Nov-16 12:00N 29°48' W 092°04'0 0.0
2017-Nov-16 11:30N 29°48' W 092°04'0 0.0
2017-Nov-16 11:00N 29°48' W 092°04'0 0.0
2017-Nov-16 10:30N 29°48' W 092°04'0 0.0
2017-Nov-16 10:00N 29°48' W 092°04'0 0.0
2017-Nov-16 09:30N 29°48' W 092°04'0 0.0
2017-Nov-16 09:00N 29°48' W 092°04'0 0.0
2017-Nov-16 08:30N 29°48' W 092°04'0 0.0
2017-Nov-16 08:00N 29°48' W 092°04'0 0.0
2017-Nov-16 07:30N 29°48' W 092°04'0 0.0
2017-Nov-16 07:00N 29°48' W 092°04'0 0.0
2017-Nov-16 06:30N 29°48' W 092°04'0 0.1
2017-Nov-16 06:00N 29°48' W 092°04'0 0.4
2017-Nov-16 05:30N 29°48' W 092°04'1 3.0
2017-Nov-16 05:00N 29°49' W 092°02'2 3.6
2017-Nov-16 04:30N 29°50' W 092°00'1 2.0
2017-Nov-16 04:01N 29°50' W 091°59'1 2.9
2017-Nov-16 03:30N 29°50' W 091°58'2 3.5
2017-Nov-16 03:00N 29°51' W 091°56'  
2017-Nov-12 19:21N 29°34' W 090°57'2 4.6
2017-Nov-12 18:57N 29°33' W 090°55'2 4.5
2017-Nov-12 18:29N 29°32' W 090°53'2 4.3
2017-Nov-12 18:00N 29°32' W 090°50'2 4.6
2017-Nov-12 17:30N 29°32' W 090°48'2 4.4
2017-Nov-12 17:01N 29°33' W 090°45'1 2.0
2017-Nov-12 16:30N 29°34' W 090°45'2 3.6
2017-Nov-12 16:00N 29°35' W 090°43'2 3.8
2017-Nov-12 15:30N 29°36' W 090°43'1 1.7
2017-Nov-12 15:00N 29°37' W 090°42'0 0.1
2017-Nov-12 14:30N 29°37' W 090°42'1 2.7
2017-Nov-12 14:01N 29°36' W 090°40'1 1.7
2017-Nov-12 13:30N 29°36' W 090°39'0 0.2
2017-Nov-12 13:00N 29°36' W 090°39'0 0.0
2017-Nov-12 12:30N 29°36' W 090°39'0 0.0
2017-Nov-12 12:00N 29°36' W 090°39'0 0.0
2017-Nov-12 11:30N 29°36' W 090°39'0 0.0
2017-Nov-12 11:00N 29°36' W 090°39'0 0.0
2017-Nov-12 10:30N 29°36' W 090°39'0 0.0
2017-Nov-12 10:01N 29°36' W 090°39'0 0.0
2017-Nov-12 09:30N 29°36' W 090°39'0 0.0
2017-Nov-12 09:00N 29°36' W 090°39'0 0.0
2017-Nov-12 08:30N 29°36' W 090°39'0 0.0
2017-Nov-12 08:00N 29°36' W 090°39'0 0.0
2017-Nov-12 07:30N 29°36' W 090°39'0 0.0
2017-Nov-12 07:00N 29°36' W 090°39'0 0.0
2017-Nov-12 06:30N 29°36' W 090°39'0 0.0
2017-Nov-12 06:00N 29°36' W 090°39'0 0.0
2017-Nov-12 05:30N 29°36' W 090°39'0 0.0
2017-Nov-12 05:00N 29°36' W 090°39'0 0.0
2017-Nov-12 04:30N 29°36' W 090°39'0 0.0
2017-Nov-12 04:00N 29°36' W 090°39'0 0.0
2017-Nov-12 03:30N 29°36' W 090°39'0 0.0
2017-Nov-12 03:00N 29°36' W 090°39'0 0.0
2017-Nov-12 02:30N 29°36' W 090°39'0 0.1
2017-Nov-12 02:00N 29°36' W 090°39'0 0.0
2017-Nov-12 01:30N 29°36' W 090°39'0 0.1
2017-Nov-12 01:00N 29°36' W 090°39'0 0.8
2017-Nov-12 00:31N 29°36' W 090°40'0 0.3
2017-Nov-12 00:00N 29°36' W 090°40'0 0.4
2017-Nov-11 23:30N 29°36' W 090°40'0 0.1
2017-Nov-11 23:00N 29°36' W 090°40'0 0.0
2017-Nov-11 22:30N 29°36' W 090°40'0 0.0
2017-Nov-11 22:00N 29°36' W 090°40'0 0.0
2017-Nov-11 21:30N 29°36' W 090°40'0 0.0
2017-Nov-11 21:01N 29°36' W 090°40'0 0.0
2017-Nov-11 20:30N 29°36' W 090°40'0 0.0
2017-Nov-11 20:00N 29°36' W 090°40'0 0.0
2017-Nov-11 19:30N 29°36' W 090°40'0 0.0
2017-Nov-11 19:00N 29°36' W 090°40'0 0.0
2017-Nov-11 18:30N 29°36' W 090°40'0 0.0
2017-Nov-11 18:00N 29°36' W 090°40'0 0.0
2017-Nov-11 17:30N 29°36' W 090°40'0 0.0
2017-Nov-11 17:00N 29°36' W 090°40'0 0.0
2017-Nov-11 16:30N 29°36' W 090°40'0 0.0
2017-Nov-11 16:00N 29°36' W 090°40'0 0.8
2017-Nov-11 15:30N 29°36' W 090°39'0 0.0
2017-Nov-11 15:00N 29°36' W 090°39'0 0.2
2017-Nov-11 14:31N 29°36' W 090°40'0 0.3
2017-Nov-11 14:00N 29°36' W 090°39'0 0.7
2017-Nov-11 13:30N 29°36' W 090°40'0 0.4
2017-Nov-11 13:00N 29°36' W 090°40'0 0.0
2017-Nov-11 12:30N 29°36' W 090°40'0 0.0
2017-Nov-11 12:00N 29°36' W 090°40'0 0.0
2017-Nov-11 11:30N 29°36' W 090°40'0 0.0
2017-Nov-11 11:00N 29°36' W 090°40'0 0.0
2017-Nov-11 10:30N 29°36' W 090°40'0 0.0
2017-Nov-11 10:00N 29°36' W 090°40'0 0.0
2017-Nov-11 09:30N 29°36' W 090°40'0 0.0
2017-Nov-11 09:00N 29°36' W 090°40'0 0.0
2017-Nov-11 08:30N 29°36' W 090°40'0 0.0
2017-Nov-11 08:00N 29°36' W 090°40'0 0.0
2017-Nov-11 07:30N 29°36' W 090°40'0 0.0
2017-Nov-11 07:00N 29°36' W 090°40'0 0.0
2017-Nov-11 06:30N 29°36' W 090°40'0 0.0
2017-Nov-11 06:00N 29°36' W 090°40'0 0.0
2017-Nov-11 05:30N 29°36' W 090°40'0 0.0
2017-Nov-11 05:00N 29°36' W 090°40'0 0.0
2017-Nov-11 04:30N 29°36' W 090°40'0 0.0
2017-Nov-11 04:01N 29°36' W 090°40'0 0.0
2017-Nov-11 03:30N 29°36' W 090°40'0 0.0
2017-Nov-11 03:00N 29°36' W 090°40'0 0.0
2017-Nov-11 02:30N 29°36' W 090°40'0 0.0
2017-Nov-11 02:00N 29°36' W 090°40'0 0.0
2017-Nov-11 01:30N 29°36' W 090°40'0 0.0
2017-Nov-11 01:00N 29°36' W 090°40'0 0.0
2017-Nov-11 00:30N 29°36' W 090°40'0 0.0
2017-Nov-11 00:00N 29°36' W 090°40'0 0.0
2017-Nov-10 23:31N 29°36' W 090°40'0 0.0
2017-Nov-10 23:00N 29°36' W 090°40'0 0.2
2017-Nov-10 22:30N 29°36' W 090°40'0 0.1
2017-Nov-10 22:00N 29°36' W 090°40'0 0.0
2017-Nov-10 21:30N 29°36' W 090°40'0 0.0
2017-Nov-10 21:00N 29°36' W 090°40'0 0.0
2017-Nov-10 20:31N 29°36' W 090°40'0 0.0
2017-Nov-10 20:00N 29°36' W 090°40'0 0.0
2017-Nov-10 19:30N 29°36' W 090°40'0 0.0
2017-Nov-10 19:01N 29°36' W 090°40'0 0.8
2017-Nov-10 18:30N 29°36' W 090°39'0 0.7
2017-Nov-10 18:01N 29°36' W 090°40'0 0.7
2017-Nov-10 17:27N 29°36' W 090°39'0 0.0
2017-Nov-10 17:00N 29°36' W 090°39'0 0.0
2017-Nov-10 16:14N 29°36' W 090°39'0 0.0
2017-Nov-10 16:00N 29°36' W 090°39'0 0.0
2017-Nov-10 15:31N 29°36' W 090°39'0 0.0
2017-Nov-10 15:00N 29°36' W 090°39'0 0.0
2017-Nov-10 14:30N 29°36' W 090°39'0 0.4
2017-Nov-10 14:00N 29°36' W 090°40'0 0.2
2017-Nov-10 13:30N 29°36' W 090°40'0 0.1
2017-Nov-10 13:01N 29°36' W 090°40'0 0.4
2017-Nov-10 12:30N 29°36' W 090°39'0 0.0
2017-Nov-10 12:00N 29°36' W 090°39'0 0.0
2017-Nov-10 10:31N 29°36' W 090°39'0 0.0
2017-Nov-10 10:30N 29°36' W 090°39'0 0.0
2017-Nov-10 10:01N 29°36' W 090°39'0 0.0
2017-Nov-10 09:30N 29°36' W 090°39'0 0.0
2017-Nov-10 09:00N 29°36' W 090°39'0 0.0
2017-Nov-10 08:31N 29°36' W 090°39'0 0.0
2017-Nov-10 08:00N 29°36' W 090°39'0 0.0
2017-Nov-10 07:30N 29°36' W 090°39'0 0.0
2017-Nov-10 07:01N 29°36' W 090°39'0 0.0
2017-Nov-10 06:30N 29°36' W 090°39'0 0.0
2017-Nov-10 06:00N 29°36' W 090°39'0 0.0
2017-Nov-10 05:30N 29°36' W 090°39'0 0.0
2017-Nov-10 05:01N 29°36' W 090°39'0 0.0
2017-Nov-10 04:30N 29°36' W 090°39'0 0.0
2017-Nov-10 04:01N 29°36' W 090°39'0 0.0
2017-Nov-10 03:30N 29°36' W 090°39'0 0.0
2017-Nov-10 03:00N 29°36' W 090°39'0 0.0
2017-Nov-10 02:30N 29°36' W 090°39'0 0.0
2017-Nov-10 02:01N 29°36' W 090°39'0 0.0
2017-Nov-10 01:30N 29°36' W 090°39'0 0.0
2017-Nov-10 01:01N 29°36' W 090°39'0 0.0
2017-Nov-10 00:30N 29°36' W 090°39'0 0.0
2017-Nov-10 00:00N 29°36' W 090°39'0 0.4
2017-Nov-09 23:30N 29°36' W 090°40'0 0.4
2017-Nov-09 23:00N 29°36' W 090°39'0 0.0
2017-Nov-09 22:30N 29°36' W 090°39'0 0.0
2017-Nov-09 22:00N 29°36' W 090°39'0 0.0
2017-Nov-09 21:30N 29°36' W 090°39'0 0.0
2017-Nov-09 21:00N 29°36' W 090°39'0 0.0
2017-Nov-09 20:30N 29°36' W 090°39'0 0.0
2017-Nov-09 20:00N 29°36' W 090°39'0 0.0
2017-Nov-09 19:30N 29°36' W 090°39'0 0.0
2017-Nov-09 19:00N 29°36' W 090°39'0 0.0
2017-Nov-09 18:31N 29°36' W 090°39'0 0.0
2017-Nov-09 18:00N 29°36' W 090°39'0 0.0
2017-Nov-09 17:30N 29°36' W 090°39'0 0.3
2017-Nov-09 17:00N 29°36' W 090°40'0 0.3
2017-Nov-09 16:30N 29°36' W 090°40'0 0.0
2017-Nov-09 16:00N 29°36' W 090°40'0 0.2
2017-Nov-09 15:31N 29°36' W 090°40'0 0.0
2017-Nov-09 15:00N 29°36' W 090°40'0 0.4
2017-Nov-09 14:30N 29°36' W 090°40'0 0.5
2017-Nov-09 13:58N 29°36' W 090°40'0 0.8
2017-Nov-09 13:30N 29°36' W 090°39'0 0.0
2017-Nov-09 13:00N 29°36' W 090°39'0 0.0
2017-Nov-09 12:30N 29°36' W 090°39'0 0.0
2017-Nov-09 12:00N 29°36' W 090°39'0 0.0
2017-Nov-09 11:30N 29°36' W 090°39'0 0.0
2017-Nov-09 11:00N 29°36' W 090°39'0 0.0
2017-Nov-09 10:31N 29°36' W 090°39'0 0.0
2017-Nov-09 10:00N 29°36' W 090°39'0 0.0
2017-Nov-09 09:30N 29°36' W 090°39'0 0.0
2017-Nov-09 09:00N 29°36' W 090°39'0 0.0
2017-Nov-09 08:30N 29°36' W 090°39'0 0.0
2017-Nov-09 08:00N 29°36' W 090°39'0 0.0
2017-Nov-09 07:30N 29°36' W 090°39'0 0.0
2017-Nov-09 07:00N 29°36' W 090°39'0 0.0
2017-Nov-09 06:30N 29°36' W 090°39'0 0.0
2017-Nov-09 06:01N 29°36' W 090°39'0 0.0
2017-Nov-09 05:31N 29°36' W 090°39'0 0.0
2017-Nov-09 05:00N 29°36' W 090°39'0 0.0
2017-Nov-09 04:30N 29°36' W 090°39'0 0.0
2017-Nov-09 04:00N 29°36' W 090°39'0 0.0
2017-Nov-09 03:30N 29°36' W 090°39'0 0.0
2017-Nov-09 03:00N 29°36' W 090°39'0 0.0
2017-Nov-09 02:30N 29°36' W 090°39'0 0.0
2017-Nov-09 02:00N 29°36' W 090°39'0 0.0
2017-Nov-09 01:30N 29°36' W 090°39'0 0.0
2017-Nov-09 01:00N 29°36' W 090°39'0 0.0
2017-Nov-09 00:30N 29°36' W 090°39'0 0.0
2017-Nov-09 00:00N 29°36' W 090°39'0 0.0
2017-Nov-08 23:30N 29°36' W 090°39'0 0.0
2017-Nov-08 23:00N 29°36' W 090°39'0 0.7
2017-Nov-08 22:30N 29°36' W 090°40'0 0.2
2017-Nov-08 22:00N 29°36' W 090°40'  

Dump ship's entire track history